Time;durP1;ratioP1;P1;durP2;ratioP2;P2;SDS_P1;SDS_P2;PMS_P1;PMS_P2;Temp;Humidity;BMP_temperature;BMP_pressure;BME280_temperature;BME280_humidity;BME280_pressure;Samples;Min_cycle;Max_cycle;Signal;HPM_P1;HPM_P2
2021/05/20 00:00:14;;;;;;;4.88;2.67;;;;;;;;;;4927102;29;20044;-61
2021/05/20 00:02:41;;;;;;;6.47;2.60;;;;;;;;;;4915720;29;20594;-61
2021/05/20 00:05:07;;;;;;;7.65;2.92;;;;;;;;;;4907484;29;20168;-62
2021/05/20 00:07:34;;;;;;;6.65;2.63;;;;;;;;;;4909666;29;20067;-60
2021/05/20 00:10:00;;;;;;;5.75;2.75;;;;;;;;;;4927719;29;20040;-57
2021/05/20 00:12:26;;;;;;;4.05;2.35;;;;;;;;;;4938090;29;20046;-65
2021/05/20 00:14:52;;;;;;;3.83;2.13;;;;;;;;;;4908628;29;20548;-54
2021/05/20 00:17:18;;;;;;;6.03;2.83;;;;;;;;;;4908528;29;20051;-53
2021/05/20 00:19:47;;;;;;;6.32;2.83;;;;;;;;;;4910387;29;20044;-54
2021/05/20 00:22:14;;;;;;;6.32;2.72;;;;;;;;;;4911620;29;20039;-56
2021/05/20 00:24:41;;;;;;;5.40;2.70;;;;;;;;;;4907666;29;20059;-55
2021/05/20 00:27:07;;;;;;;6.20;2.75;;;;;;;;;;4893102;29;20063;-55
2021/05/20 00:29:33;;;;;;;7.05;2.42;;;;;;;;;;4918734;29;20048;-53
2021/05/20 00:32:00;;;;;;;5.28;2.67;;;;;;;;;;4930785;29;20051;-53
2021/05/20 00:34:25;;;;;;;5.70;2.58;;;;;;;;;;4915110;29;20099;-54
2021/05/20 00:36:51;;;;;;;8.30;3.00;;;;;;;;;;4911080;29;20052;-61
2021/05/20 00:39:17;;;;;;;5.13;2.60;;;;;;;;;;4915548;29;20130;-56
2021/05/20 00:41:45;;;;;;;9.55;2.90;;;;;;;;;;4914414;29;20134;-59
2021/05/20 00:44:11;;;;;;;5.85;2.50;;;;;;;;;;4914377;29;20051;-59
2021/05/20 00:46:39;;;;;;;5.03;2.70;;;;;;;;;;4929526;29;20035;-54
2021/05/20 00:49:10;;;;;;;;;;;;;;;;;;4943139;29;20032;-54
2021/05/20 00:51:36;;;;;;;4.93;2.63;;;;;;;;;;4928287;29;19926;-56
2021/05/20 00:54:02;;;;;;;4.63;2.78;;;;;;;;;;4923329;29;20044;-51
2021/05/20 00:56:29;;;;;;;5.65;2.75;;;;;;;;;;4911032;29;20047;-58
2021/05/20 00:58:57;;;;;;;11.75;3.15;;;;;;;;;;4925638;29;20051;-56
2021/05/20 01:01:24;;;;;;;6.22;2.90;;;;;;;;;;4892417;29;20040;-54
2021/05/20 01:03:51;;;;;;;4.78;2.80;;;;;;;;;;4892271;29;20044;-51
2021/05/20 01:06:17;;;;;;;6.40;3.38;;;;;;;;;;4926110;29;20044;-50
2021/05/20 01:08:42;;;;;;;6.20;3.15;;;;;;;;;;4930519;29;20054;-55
2021/05/20 01:11:09;;;;;;;7.80;3.45;;;;;;;;;;4924599;29;20054;-59
2021/05/20 01:13:35;;;;;;;6.53;3.10;;;;;;;;;;4930888;29;20039;-61
2021/05/20 01:16:09;;;;;;;6.55;3.55;;;;;;;;;;4941878;29;20039;-58
2021/05/20 01:18:35;;;;;;;8.52;3.20;;;;;;;;;;4929217;29;20039;-60
2021/05/20 01:21:02;;;;;;;6.35;3.33;;;;;;;;;;4915261;29;20487;-62
2021/05/20 01:23:28;;;;;;;6.43;3.33;;;;;;;;;;4908599;29;20100;-58
2021/05/20 01:25:54;;;;;;;7.90;3.70;;;;;;;;;;4890786;29;20040;-54
2021/05/20 01:28:21;;;;;;;6.65;3.53;;;;;;;;;;4889252;29;20048;-57
2021/05/20 01:30:48;;;;;;;7.75;3.45;;;;;;;;;;4915976;29;20059;-57
2021/05/20 01:33:14;;;;;;;6.32;3.90;;;;;;;;;;4946003;29;20039;-62
2021/05/20 01:35:40;;;;;;;9.45;4.25;;;;;;;;;;4922181;29;20027;-64
2021/05/20 01:41:08;;;;;;;9.48;5.35;;;;;;;;;;4828140;29;28934;-64
2021/05/20 01:43:34;;;;;;;10.98;6.05;;;;;;;;;;4833249;29;20068;-60
2021/05/20 01:46:01;;;;;;;14.23;7.47;;;;;;;;;;4860906;29;20055;-60
2021/05/20 01:48:29;;;;;;;16.63;7.60;;;;;;;;;;4929221;29;20031;-61
2021/05/20 01:51:00;;;;;;;16.10;7.35;;;;;;;;;;4925142;29;20071;-56
2021/05/20 01:53:27;;;;;;;18.90;7.45;;;;;;;;;;4891336;29;20052;-60
2021/05/20 01:55:53;;;;;;;16.20;8.15;;;;;;;;;;4890303;29;20029;-56
2021/05/20 01:58:19;;;;;;;21.02;8.70;;;;;;;;;;4906555;29;20121;-59
2021/05/20 02:00:45;;;;;;;20.25;10.18;;;;;;;;;;4925846;29;20060;-55
2021/05/20 02:03:11;;;;;;;19.58;9.23;;;;;;;;;;4920622;28;20063;-61
2021/05/20 02:05:37;;;;;;;23.00;11.05;;;;;;;;;;4928703;29;20039;-57
2021/05/20 02:08:03;;;;;;;22.48;10.65;;;;;;;;;;4925016;29;20043;-55
2021/05/20 02:10:30;;;;;;;22.13;11.52;;;;;;;;;;4929511;29;20043;-55
2021/05/20 02:12:58;;;;;;;22.48;11.70;;;;;;;;;;4914999;29;20040;-55
2021/05/20 02:15:24;;;;;;;22.73;10.98;;;;;;;;;;4925559;29;20044;-56
2021/05/20 02:17:50;;;;;;;22.60;11.93;;;;;;;;;;4907967;29;20131;-56
2021/05/20 02:20:16;;;;;;;28.33;12.60;;;;;;;;;;4910006;29;20118;-58
2021/05/20 02:22:42;;;;;;;22.45;11.60;;;;;;;;;;4907697;29;20055;-58
2021/05/20 02:25:09;;;;;;;22.83;12.30;;;;;;;;;;4909331;29;20060;-54
2021/05/20 02:27:36;;;;;;;22.27;12.27;;;;;;;;;;4890247;29;20062;-55
2021/05/20 02:30:02;;;;;;;24.38;12.52;;;;;;;;;;4910352;29;20091;-54
2021/05/20 02:32:28;;;;;;;22.73;11.63;;;;;;;;;;4909403;29;20040;-56
2021/05/20 02:34:54;;;;;;;26.50;12.40;;;;;;;;;;4905900;29;20048;-50
2021/05/20 02:37:20;;;;;;;29.38;12.88;;;;;;;;;;4892586;29;20157;-55
2021/05/20 02:39:46;;;;;;;25.80;13.18;;;;;;;;;;4903788;29;20051;-60
2021/05/20 02:42:12;;;;;;;27.65;12.95;;;;;;;;;;4945812;29;20056;-59
2021/05/20 02:44:39;;;;;;;28.23;13.02;;;;;;;;;;4923720;29;20062;-53
2021/05/20 02:47:05;;;;;;;27.88;13.88;;;;;;;;;;4944590;29;20067;-61
2021/05/20 02:49:31;;;;;;;27.15;12.52;;;;;;;;;;4931201;29;20095;-52
2021/05/20 02:51:57;;;;;;;27.52;12.82;;;;;;;;;;4909884;29;20044;-59
2021/05/20 02:54:23;;;;;;;27.92;12.23;;;;;;;;;;4912817;29;20035;-58
2021/05/20 02:56:49;;;;;;;27.15;11.75;;;;;;;;;;4944549;28;20039;-55
2021/05/20 02:59:15;;;;;;;27.95;12.18;;;;;;;;;;4919191;29;20043;-58
2021/05/20 03:01:44;;;;;;;28.42;12.95;;;;;;;;;;4909487;29;20044;-56
2021/05/20 03:04:10;;;;;;;29.02;12.23;;;;;;;;;;4906296;29;20063;-62
2021/05/20 03:06:36;;;;;;;28.23;12.50;;;;;;;;;;4908031;29;20047;-59
2021/05/20 03:09:02;;;;;;;31.98;11.55;;;;;;;;;;4922998;29;20043;-63
2021/05/20 03:11:30;;;;;;;26.75;11.93;;;;;;;;;;4908932;29;20131;-58
2021/05/20 03:13:56;;;;;;;27.92;12.07;;;;;;;;;;4909393;29;20112;-58
2021/05/20 03:16:22;;;;;;;27.23;12.05;;;;;;;;;;4905733;29;20083;-60
2021/05/20 03:18:49;;;;;;;26.00;11.65;;;;;;;;;;4924592;29;20040;-62
2021/05/20 03:21:16;;;;;;;25.20;11.95;;;;;;;;;;4905281;29;20118;-61
2021/05/20 03:23:42;;;;;;;25.75;11.57;;;;;;;;;;4908336;29;20093;-58
2021/05/20 03:26:08;;;;;;;27.52;12.00;;;;;;;;;;4899684;29;20056;-58
2021/05/20 03:28:34;;;;;;;29.17;12.45;;;;;;;;;;4909254;29;20044;-59
2021/05/20 03:31:00;;;;;;;26.90;11.73;;;;;;;;;;4916144;29;20039;-55
2021/05/20 03:33:26;;;;;;;26.35;11.45;;;;;;;;;;4928523;29;20099;-57
2021/05/20 03:35:56;;;;;;;25.10;11.00;;;;;;;;;;4917421;29;20058;-59
2021/05/20 03:38:22;;;;;;;28.23;11.68;;;;;;;;;;4906206;29;20103;-60
2021/05/20 03:40:50;;;;;;;24.90;11.45;;;;;;;;;;4907332;29;20052;-54
2021/05/20 03:43:16;;;;;;;21.80;10.13;;;;;;;;;;4907777;29;20051;-54
2021/05/20 03:45:42;;;;;;;23.88;9.88;;;;;;;;;;4905833;29;20047;-54
2021/05/20 03:48:08;;;;;;;21.52;10.55;;;;;;;;;;4908587;29;20054;-56
2021/05/20 03:50:35;;;;;;;21.13;9.82;;;;;;;;;;4905684;29;20099;-51
2021/05/20 03:53:03;;;;;;;18.88;8.88;;;;;;;;;;4909483;29;20036;-56
2021/05/20 03:55:32;;;;;;;18.35;9.13;;;;;;;;;;4907231;29;20055;-55
2021/05/20 03:57:58;;;;;;;19.98;9.07;;;;;;;;;;4905838;29;20042;-53
2021/05/20 04:00:24;;;;;;;20.42;9.38;;;;;;;;;;4908355;29;20048;-57
2021/05/20 04:02:51;;;;;;;20.38;9.18;;;;;;;;;;4905203;29;20051;-58
2021/05/20 04:05:17;;;;;;;20.80;10.10;;;;;;;;;;4910861;29;20036;-55
2021/05/20 04:07:43;;;;;;;21.70;10.45;;;;;;;;;;4918450;29;20058;-62
2021/05/20 04:10:11;;;;;;;21.05;10.07;;;;;;;;;;4928295;29;20051;-61
2021/05/20 04:12:38;;;;;;;21.90;10.90;;;;;;;;;;4913131;29;20039;-61
2021/05/20 04:15:04;;;;;;;19.77;9.82;;;;;;;;;;4913591;29;20096;-59
2021/05/20 04:17:30;;;;;;;27.98;11.57;;;;;;;;;;4920261;29;20040;-59
2021/05/20 04:19:56;;;;;;;25.83;10.77;;;;;;;;;;4908105;29;20163;-60
2021/05/20 04:22:23;;;;;;;23.35;10.77;;;;;;;;;;4909820;29;20050;-61
2021/05/20 04:24:49;;;;;;;27.15;12.15;;;;;;;;;;4926746;29;20059;-56
2021/05/20 04:27:16;;;;;;;30.02;10.85;;;;;;;;;;4904710;29;20055;-62
2021/05/20 04:29:42;;;;;;;27.50;11.48;;;;;;;;;;4908641;29;20040;-62
2021/05/20 04:32:09;;;;;;;26.33;11.07;;;;;;;;;;4905665;29;20550;-62
2021/05/20 04:34:35;;;;;;;31.23;11.93;;;;;;;;;;4907628;29;20048;-61
2021/05/20 04:37:02;;;;;;;27.40;12.48;;;;;;;;;;4908026;29;20047;-61
2021/05/20 04:39:29;;;;;;;28.98;11.73;;;;;;;;;;4903433;29;20047;-63
2021/05/20 04:41:57;;;;;;;31.65;13.20;;;;;;;;;;4923716;29;20054;-62
2021/05/20 04:44:24;;;;;;;36.38;12.55;;;;;;;;;;4922415;29;20035;-63
2021/05/20 04:46:50;;;;;;;32.75;12.40;;;;;;;;;;4927002;29;20072;-63
2021/05/20 04:49:16;;;;;;;38.05;13.30;;;;;;;;;;4938604;29;20055;-59
2021/05/20 04:51:42;;;;;;;33.50;11.98;;;;;;;;;;4925546;29;20054;-61
2021/05/20 04:54:08;;;;;;;29.95;12.48;;;;;;;;;;4919578;29;20058;-54
2021/05/20 04:56:34;;;;;;;32.58;12.23;;;;;;;;;;4925287;29;20171;-58
2021/05/20 04:59:01;;;;;;;30.90;12.65;;;;;;;;;;4907959;29;20051;-59
2021/05/20 05:01:28;;;;;;;35.53;12.13;;;;;;;;;;4907894;29;20130;-64
2021/05/20 05:03:56;;;;;;;34.47;11.50;;;;;;;;;;4908466;29;20054;-58
2021/05/20 05:06:22;;;;;;;31.17;11.93;;;;;;;;;;4928541;29;20052;-56
2021/05/20 05:08:48;;;;;;;32.28;12.88;;;;;;;;;;4923258;29;20028;-56
2021/05/20 05:11:15;;;;;;;31.70;12.20;;;;;;;;;;4910654;29;20114;-56
2021/05/20 05:13:49;;;;;;;32.33;11.68;;;;;;;;;;4909955;29;20048;-59
2021/05/20 05:16:15;;;;;;;29.10;11.90;;;;;;;;;;4908137;29;20052;-53
2021/05/20 05:18:42;;;;;;;29.45;12.15;;;;;;;;;;4911344;29;20050;-53
2021/05/20 05:21:09;;;;;;;29.52;11.82;;;;;;;;;;4907334;29;20183;-59
2021/05/20 05:23:36;;;;;;;31.38;12.85;;;;;;;;;;4910505;29;20055;-62
2021/05/20 05:26:02;;;;;;;35.15;13.52;;;;;;;;;;4899442;29;20122;-56
2021/05/20 05:28:28;;;;;;;30.83;12.57;;;;;;;;;;4910138;29;20043;-55
2021/05/20 05:30:54;;;;;;;29.10;12.38;;;;;;;;;;4907737;29;20047;-53
2021/05/20 05:33:22;;;;;;;30.85;12.85;;;;;;;;;;4913415;29;20056;-59
2021/05/20 05:35:49;;;;;;;34.92;13.00;;;;;;;;;;4918172;29;20040;-56
2021/05/20 05:38:15;;;;;;;32.00;12.82;;;;;;;;;;4930212;29;20043;-55
2021/05/20 05:40:41;;;;;;;30.48;12.35;;;;;;;;;;4918350;29;20032;-61
2021/05/20 05:43:07;;;;;;;41.90;14.32;;;;;;;;;;4927484;29;20050;-60
2021/05/20 05:45:33;;;;;;;33.97;13.63;;;;;;;;;;4909938;29;20046;-58
2021/05/20 05:47:59;;;;;;;34.47;13.32;;;;;;;;;;4928394;29;20048;-57
2021/05/20 05:50:26;;;;;;;31.67;12.15;;;;;;;;;;4909016;29;20139;-53
2021/05/20 05:52:53;;;;;;;28.95;10.63;;;;;;;;;;4903674;29;20060;-56
2021/05/20 05:55:19;;;;;;;27.83;10.57;;;;;;;;;;4905534;29;20103;-54
2021/05/20 05:57:46;;;;;;;31.85;10.98;;;;;;;;;;4901841;29;20060;-55
2021/05/20 06:00:13;;;;;;;29.10;11.18;;;;;;;;;;4912167;29;20060;-58
2021/05/20 06:02:39;;;;;;;25.58;9.77;;;;;;;;;;4900987;29;20052;-54
2021/05/20 06:05:06;;;;;;;24.35;10.20;;;;;;;;;;4906138;29;20063;-56
2021/05/20 06:07:35;;;;;;;30.20;11.00;;;;;;;;;;4903115;29;20063;-55
2021/05/20 06:10:02;;;;;;;32.92;10.95;;;;;;;;;;4906422;29;20051;-58
2021/05/20 06:12:28;;;;;;;35.58;11.45;;;;;;;;;;4900273;29;20050;-58
2021/05/20 06:14:54;;;;;;;32.05;10.60;;;;;;;;;;4920338;29;20044;-55
2021/05/20 06:17:20;;;;;;;35.03;11.40;;;;;;;;;;4903467;29;20055;-56
2021/05/20 06:19:47;;;;;;;35.15;11.48;;;;;;;;;;4915533;29;20068;-59
2021/05/20 06:22:13;;;;;;;38.63;11.95;;;;;;;;;;4903386;29;20035;-58
2021/05/20 06:24:39;;;;;;;39.42;12.70;;;;;;;;;;4909115;29;20055;-60
2021/05/20 06:27:06;;;;;;;37.63;13.57;;;;;;;;;;4897619;29;20051;-53
2021/05/20 06:29:32;;;;;;;42.35;13.35;;;;;;;;;;4907735;29;20040;-56
2021/05/20 06:31:58;;;;;;;40.42;12.02;;;;;;;;;;4922222;29;20113;-55
2021/05/20 06:34:24;;;;;;;38.35;11.77;;;;;;;;;;4909718;29;20095;-56
2021/05/20 06:36:50;;;;;;;35.90;11.35;;;;;;;;;;4916646;29;20047;-56
2021/05/20 06:39:16;;;;;;;39.22;12.65;;;;;;;;;;4940221;29;20047;-65
2021/05/20 06:41:42;;;;;;;36.15;12.90;;;;;;;;;;4914607;29;20319;-55
2021/05/20 06:44:09;;;;;;;37.72;13.30;;;;;;;;;;4906422;29;20047;-57
2021/05/20 06:46:37;;;;;;;40.58;14.00;;;;;;;;;;4910385;29;20159;-52
2021/05/20 06:49:03;;;;;;;39.00;13.90;;;;;;;;;;4907127;29;20063;-52
2021/05/20 06:51:30;;;;;;;39.08;13.93;;;;;;;;;;4900395;29;20051;-56
2021/05/20 06:53:56;;;;;;;44.38;13.63;;;;;;;;;;4916956;29;20035;-55
2021/05/20 06:56:23;;;;;;;37.08;13.20;;;;;;;;;;4927991;29;20039;-57
2021/05/20 07:01:44;;;;;;;50.97;15.52;;;;;;;;;;4944019;29;20054;-54
2021/05/20 07:04:10;;;;;;;45.90;15.18;;;;;;;;;;4917328;29;20081;-55
2021/05/20 07:06:36;;;;;;;46.45;16.75;;;;;;;;;;4910627;29;20371;-55
2021/05/20 07:09:02;;;;;;;53.78;17.55;;;;;;;;;;4912536;29;20091;-53
2021/05/20 07:11:30;;;;;;;50.58;18.40;;;;;;;;;;4927424;29;20050;-58
2021/05/20 07:13:56;;;;;;;49.35;18.13;;;;;;;;;;4923479;29;20125;-55
2021/05/20 07:16:22;;;;;;;51.70;17.55;;;;;;;;;;4928580;29;20059;-56
2021/05/20 07:18:49;;;;;;;55.70;17.70;;;;;;;;;;4923431;29;20043;-58
2021/05/20 07:21:16;;;;;;;47.20;18.02;;;;;;;;;;4927364;29;20059;-56
2021/05/20 07:23:42;;;;;;;59.17;21.90;;;;;;;;;;4918675;29;20044;-57
2021/05/20 07:26:08;;;;;;;56.35;21.67;;;;;;;;;;4912542;29;20066;-59
2021/05/20 07:28:34;;;;;;;54.13;19.90;;;;;;;;;;4909466;29;20063;-57
2021/05/20 07:31:00;;;;;;;55.28;19.65;;;;;;;;;;4920794;29;20079;-60
2021/05/20 07:33:27;;;;;;;49.78;18.33;;;;;;;;;;4926090;29;20039;-56
2021/05/20 07:35:54;;;;;;;41.20;16.13;;;;;;;;;;4912546;29;20032;-57
2021/05/20 07:38:27;;;;;;;43.42;17.23;;;;;;;;;;4926651;29;20047;-57
2021/05/20 07:40:53;;;;;;;43.60;16.23;;;;;;;;;;4938154;29;20043;-53
2021/05/20 07:43:20;;;;;;;44.00;16.98;;;;;;;;;;4924532;29;20051;-56
2021/05/20 07:45:49;;;;;;;45.75;17.33;;;;;;;;;;4914838;29;20054;-56
2021/05/20 07:48:15;;;;;;;;;;;;;;;;;;4909111;29;20056;-55
2021/05/20 07:50:41;;;;;;;44.97;14.93;;;;;;;;;;4903329;29;19951;-55
2021/05/20 07:53:09;;;;;;;37.50;14.93;;;;;;;;;;4905162;29;20044;-55
2021/05/20 07:55:35;;;;;;;39.30;15.82;;;;;;;;;;4904212;29;20032;-53
2021/05/20 07:58:00;;;;;;;32.22;14.88;;;;;;;;;;4906902;29;20058;-53
2021/05/20 08:00:28;;;;;;;45.70;17.45;;;;;;;;;;4905054;29;20028;-59
2021/05/20 08:02:59;;;;;;;45.03;16.80;;;;;;;;;;4906901;29;20110;-58
2021/05/20 08:05:31;;;;;;;99.53;16.08;;;;;;;;;;4907288;29;20063;-59
2021/05/20 08:08:05;;;;;;;53.30;16.67;;;;;;;;;;4906885;29;20044;-61
2021/05/20 08:10:46;;;;;;;38.55;15.38;;;;;;;;;;4924668;29;20047;-60
2021/05/20 08:13:13;;;;;;;39.60;15.13;;;;;;;;;;4888773;29;20048;-58
2021/05/20 08:15:39;;;;;;;40.13;15.73;;;;;;;;;;4889335;29;20088;-56
2021/05/20 08:18:05;;;;;;;35.53;13.85;;;;;;;;;;4920548;29;20036;-61
2021/05/20 08:20:31;;;;;;;35.28;14.07;;;;;;;;;;4943266;29;20055;-58
2021/05/20 08:22:58;;;;;;;37.90;14.88;;;;;;;;;;4923153;29;20036;-57
2021/05/20 08:25:24;;;;;;;37.28;15.00;;;;;;;;;;4920921;29;20109;-54
2021/05/20 08:27:51;;;;;;;34.67;14.95;;;;;;;;;;4914629;29;20108;-59
2021/05/20 08:30:19;;;;;;;34.90;15.07;;;;;;;;;;4909082;29;20103;-62
2021/05/20 08:32:46;;;;;;;36.67;16.25;;;;;;;;;;4914312;29;20051;-58
2021/05/20 08:35:13;;;;;;;38.13;15.88;;;;;;;;;;4928080;29;20079;-57
2021/05/20 08:37:40;;;;;;;37.83;15.93;;;;;;;;;;4924804;29;20043;-59
2021/05/20 08:40:09;;;;;;;37.63;15.25;;;;;;;;;;4927758;29;20121;-56
2021/05/20 08:42:36;;;;;;;35.50;14.02;;;;;;;;;;4908560;29;20059;-56
2021/05/20 08:45:11;;;;;;;31.10;14.48;;;;;;;;;;4909899;29;20072;-58
2021/05/20 08:47:37;;;;;;;26.30;13.25;;;;;;;;;;4899769;29;20036;-54
2021/05/20 08:50:05;;;;;;;29.17;13.32;;;;;;;;;;4910005;29;20122;-54
2021/05/20 08:52:33;;;;;;;31.38;15.35;;;;;;;;;;4908104;29;20147;-59
2021/05/20 08:54:59;;;;;;;29.17;13.02;;;;;;;;;;4929235;29;20036;-57
2021/05/20 08:57:25;;;;;;;30.55;13.13;;;;;;;;;;4927691;29;20052;-57
2021/05/20 08:59:51;;;;;;;29.38;13.82;;;;;;;;;;4907957;29;20044;-55
2021/05/20 09:02:25;;;;;;;21.50;10.85;;;;;;;;;;4927390;29;20048;-59
2021/05/20 09:04:58;;;;;;;24.83;12.35;;;;;;;;;;4923073;29;20102;-54
2021/05/20 09:07:29;;;;;;;24.63;10.82;;;;;;;;;;4929234;29;20036;-57
2021/05/20 09:10:06;;;;;;;30.85;13.25;;;;;;;;;;4909070;29;20044;-57
2021/05/20 09:12:33;;;;;;;34.80;15.20;;;;;;;;;;4910614;29;20059;-53
2021/05/20 09:14:59;;;;;;;32.00;14.65;;;;;;;;;;4907661;29;20046;-57
2021/05/20 09:17:26;;;;;;;28.75;14.88;;;;;;;;;;4902721;29;20043;-59
2021/05/20 09:19:52;;;;;;;26.02;14.13;;;;;;;;;;4917091;29;20051;-56
2021/05/20 09:22:19;;;;;;;29.10;14.27;;;;;;;;;;4946345;29;20051;-58
2021/05/20 09:24:46;;;;;;;28.40;13.15;;;;;;;;;;4914255;29;20081;-59
2021/05/20 09:27:25;;;;;;;29.45;12.63;;;;;;;;;;4893578;29;20157;-56
2021/05/20 09:30:10;;;;;;;26.55;13.13;;;;;;;;;;4904464;28;20050;-59
2021/05/20 09:32:40;;;;;;;27.85;13.00;;;;;;;;;;4946500;28;20047;-59
2021/05/20 09:35:10;;;;;;;25.52;12.57;;;;;;;;;;4916533;29;20104;-60
2021/05/20 09:37:44;;;;;;;28.65;14.63;;;;;;;;;;4927106;29;20120;-56
2021/05/20 09:40:11;;;;;;;23.95;12.23;;;;;;;;;;4914214;29;20036;-58
2021/05/20 09:42:37;;;;;;;29.63;15.52;;;;;;;;;;4929261;29;20139;-54
2021/05/20 09:45:07;;;;;;;32.72;16.35;;;;;;;;;;4919448;29;20052;-57
2021/05/20 09:47:39;;;;;;;27.80;14.27;;;;;;;;;;4924130;29;20114;-60
2021/05/20 09:50:07;;;;;;;25.70;12.70;;;;;;;;;;4906007;29;20050;-57
2021/05/20 09:52:33;;;;;;;25.73;12.05;;;;;;;;;;4910218;29;20040;-58
2021/05/20 09:55:00;;;;;;;26.40;11.93;;;;;;;;;;4888616;29;20036;-59
2021/05/20 09:57:27;;;;;;;24.13;12.52;;;;;;;;;;4939216;28;20056;-55
2021/05/20 10:00:15;;;;;;;22.45;11.20;;;;;;;;;;4927936;29;20043;-55
2021/05/20 10:02:42;;;;;;;19.92;10.73;;;;;;;;;;4904206;29;20054;-52
2021/05/20 10:05:23;;;;;;;23.00;10.70;;;;;;;;;;4927516;29;20140;-58
2021/05/20 10:07:49;;;;;;;22.30;10.68;;;;;;;;;;4893333;29;20056;-56
2021/05/20 10:10:15;;;;;;;19.55;10.20;;;;;;;;;;4892151;29;20048;-57
2021/05/20 10:12:43;;;;;;;17.98;8.90;;;;;;;;;;4924137;29;20055;-55
2021/05/20 10:15:10;;;;;;;17.55;9.23;;;;;;;;;;4928064;29;20127;-60
2021/05/20 10:17:38;;;;;;;20.05;9.85;;;;;;;;;;4909340;29;20032;-59
2021/05/20 10:20:05;;;;;;;21.15;10.32;;;;;;;;;;4909706;29;20040;-56
2021/05/20 10:22:33;;;;;;;25.83;11.82;;;;;;;;;;4906210;29;20072;-57
2021/05/20 10:24:59;;;;;;;19.48;10.15;;;;;;;;;;4927300;29;20047;-59
2021/05/20 10:27:25;;;;;;;24.83;11.60;;;;;;;;;;4926109;29;20052;-52
2021/05/20 10:29:52;;;;;;;24.63;11.15;;;;;;;;;;4927784;29;20053;-60
2021/05/20 10:32:19;;;;;;;28.58;12.32;;;;;;;;;;4924297;29;20055;-62
2021/05/20 10:34:58;;;;;;;31.15;13.48;;;;;;;;;;4926801;29;20105;-56
2021/05/20 10:37:26;;;;;;;26.92;12.57;;;;;;;;;;4914676;29;20059;-56
2021/05/20 10:39:53;;;;;;;26.63;11.40;;;;;;;;;;4908270;29;20051;-59
2021/05/20 10:42:35;;;;;;;29.98;13.20;;;;;;;;;;4923246;29;20054;-62
2021/05/20 10:45:17;;;;;;;24.08;12.23;;;;;;;;;;4925222;29;20047;-59
2021/05/20 10:48:02;;;;;;;31.33;13.32;;;;;;;;;;4923989;29;20040;-54
2021/05/20 10:50:43;;;;;;;28.00;12.60;;;;;;;;;;4928439;29;20051;-57
2021/05/20 10:53:09;;;;;;;31.27;13.75;;;;;;;;;;4914827;29;20054;-58
2021/05/20 10:55:37;;;;;;;28.52;13.90;;;;;;;;;;4909422;29;20040;-57
2021/05/20 10:58:03;;;;;;;33.13;16.27;;;;;;;;;;4911968;29;20047;-57
2021/05/20 11:00:37;;;;;;;32.08;14.73;;;;;;;;;;4927811;29;20282;-60
2021/05/20 11:03:03;;;;;;;33.25;15.77;;;;;;;;;;4918969;29;20064;-56
2021/05/20 11:05:54;;;;;;;39.63;16.23;;;;;;;;;;4910242;29;20201;-56
2021/05/20 11:08:35;;;;;;;37.05;15.23;;;;;;;;;;4905847;29;20051;-56
2021/05/20 11:11:03;;;;;;;32.70;14.88;;;;;;;;;;4897888;29;20065;-59
2021/05/20 11:13:35;;;;;;;40.72;16.42;;;;;;;;;;4921504;29;20119;-73
2021/05/20 11:16:13;;;;;;;45.20;17.88;;;;;;;;;;4907055;29;20055;-59
2021/05/20 11:18:39;;;;;;;38.83;19.60;;;;;;;;;;4903682;29;20527;-59
2021/05/20 11:21:06;;;;;;;49.42;20.77;;;;;;;;;;4907942;29;20056;-58
2021/05/20 11:23:34;;;;;;;41.65;19.90;;;;;;;;;;4908297;29;20047;-58
2021/05/20 11:26:01;;;;;;;44.92;20.55;;;;;;;;;;4935380;29;20067;-61
2021/05/20 11:28:28;;;;;;;34.83;16.88;;;;;;;;;;4904035;29;20052;-62
2021/05/20 11:30:58;;;;;;;36.88;18.48;;;;;;;;;;4889269;29;20041;-56
2021/05/20 11:33:25;;;;;;;43.33;21.60;;;;;;;;;;4890378;29;20044;-67
2021/05/20 11:36:10;;;;;;;44.60;19.05;;;;;;;;;;4922395;29;20122;-66
2021/05/20 11:38:37;;;;;;;40.38;21.35;;;;;;;;;;4929306;29;20043;-61
2021/05/20 11:41:14;;;;;;;41.65;20.13;;;;;;;;;;4933875;29;20039;-63
2021/05/20 11:43:41;;;;;;;42.10;18.98;;;;;;;;;;4911299;29;20126;-64
2021/05/20 11:46:18;;;;;;;44.67;19.33;;;;;;;;;;4916018;29;20099;-63
2021/05/20 11:48:55;;;;;;;41.00;19.35;;;;;;;;;;4922731;29;20043;-64
2021/05/20 11:51:40;;;;;;;34.47;17.42;;;;;;;;;;4909596;29;20043;-66
2021/05/20 11:54:09;;;;;;;35.67;16.92;;;;;;;;;;4909008;29;20050;-65
2021/05/20 11:56:36;;;;;;;37.63;18.15;;;;;;;;;;4920816;29;20063;-65
2021/05/20 11:59:03;;;;;;;37.08;18.38;;;;;;;;;;4928279;29;20063;-69
2021/05/20 12:01:29;;;;;;;34.65;17.27;;;;;;;;;;4922618;29;20040;-63
2021/05/20 12:03:59;;;;;;;41.55;19.45;;;;;;;;;;4927913;29;20043;-63
2021/05/20 12:06:25;;;;;;;38.58;20.08;;;;;;;;;;4924598;29;20058;-62
2021/05/20 12:09:03;;;;;;;37.42;17.58;;;;;;;;;;4925679;29;20035;-64
2021/05/20 12:11:29;;;;;;;29.95;15.48;;;;;;;;;;4923019;29;20043;-62
2021/05/20 12:13:56;;;;;;;29.95;16.00;;;;;;;;;;4928870;29;20071;-61
2021/05/20 12:16:25;;;;;;;33.70;16.65;;;;;;;;;;4924503;29;20063;-65
2021/05/20 12:18:51;;;;;;;33.55;17.95;;;;;;;;;;4943710;29;20039;-63
2021/05/20 12:21:18;;;;;;;34.60;17.33;;;;;;;;;;4923835;29;20155;-62
2021/05/20 12:23:53;;;;;;;34.17;16.85;;;;;;;;;;4947691;28;20051;-62
2021/05/20 12:26:23;;;;;;;35.58;16.95;;;;;;;;;;4926744;29;20051;-65
2021/05/20 12:28:49;;;;;;;32.58;15.70;;;;;;;;;;4914999;29;20039;-63
2021/05/20 12:31:17;;;;;;;26.85;14.05;;;;;;;;;;4922825;29;20040;-63
2021/05/20 12:33:46;;;;;;;30.08;15.15;;;;;;;;;;4910927;29;20040;-63
2021/05/20 12:36:27;;;;;;;29.85;15.38;;;;;;;;;;4907729;29;20059;-62
2021/05/20 12:38:53;;;;;;;27.15;14.60;;;;;;;;;;4929691;29;20040;-65
2021/05/20 12:41:19;;;;;;;30.75;14.25;;;;;;;;;;4916737;29;20055;-64
2021/05/20 12:43:49;;;;;;;28.63;13.93;;;;;;;;;;4908863;29;20076;-64
2021/05/20 12:46:17;;;;;;;28.55;13.75;;;;;;;;;;4889441;29;20068;-63
2021/05/20 12:48:43;;;;;;;;;;;;;;;;;;4905743;29;20054;-62
2021/05/20 12:51:23;;;;;;;22.92;12.30;;;;;;;;;;4910577;29;19926;-61
2021/05/20 12:53:52;;;;;;;29.75;12.68;;;;;;;;;;4906635;29;20143;-62
2021/05/20 12:56:25;;;;;;;29.95;12.40;;;;;;;;;;4909723;29;20040;-63
2021/05/20 12:58:51;;;;;;;23.55;10.35;;;;;;;;;;4920928;29;20050;-63
2021/05/20 13:01:19;;;;;;;22.80;11.27;;;;;;;;;;4947120;29;20050;-61
2021/05/20 13:03:46;;;;;;;18.13;10.68;;;;;;;;;;4924113;29;20080;-60
2021/05/20 13:06:17;;;;;;;21.75;10.23;;;;;;;;;;4930906;29;20058;-63
2021/05/20 13:08:44;;;;;;;18.10;9.45;;;;;;;;;;4914336;29;20117;-61
2021/05/20 13:11:15;;;;;;;56.25;14.35;;;;;;;;;;4910500;29;20048;-71
2021/05/20 13:13:43;;;;;;;35.35;12.48;;;;;;;;;;4910120;29;20039;-61
2021/05/20 13:16:14;;;;;;;33.65;11.27;;;;;;;;;;4910972;29;20055;-60
2021/05/20 13:24:16;;;;;;;49.58;11.57;;;;;;;;;;4906263;29;20087;-66
2021/05/20 13:26:42;;;;;;;30.92;8.88;;;;;;;;;;4896039;29;20052;-61
2021/05/20 13:29:11;;;;;;;22.45;7.75;;;;;;;;;;4898587;29;20044;-62
2021/05/20 13:31:38;;;;;;;16.52;7.05;;;;;;;;;;4910388;29;20176;-60
2021/05/20 13:34:06;;;;;;;55.15;12.07;;;;;;;;;;4906616;29;20035;-60
2021/05/20 13:36:32;;;;;;;44.55;10.70;;;;;;;;;;4924552;29;20050;-60
2021/05/20 13:38:57;;;;;;;36.97;9.35;;;;;;;;;;4907606;29;20036;-61
2021/05/20 13:41:24;;;;;;;46.70;10.63;;;;;;;;;;4910645;29;20046;-60
2021/05/20 13:43:52;;;;;;;26.85;7.82;;;;;;;;;;4907884;29;20043;-62
2021/05/20 13:46:27;;;;;;;26.48;7.82;;;;;;;;;;4929487;29;20054;-61
2021/05/20 13:48:53;;;;;;;59.53;10.63;;;;;;;;;;4926330;29;20044;-60
2021/05/20 13:51:20;;;;;;;48.47;9.77;;;;;;;;;;4928500;29;20054;-60
2021/05/20 13:53:48;;;;;;;80.18;13.40;;;;;;;;;;4930054;29;20051;-60
2021/05/20 13:56:15;;;;;;;209.02;29.45;;;;;;;;;;4923624;29;20050;-61
2021/05/20 13:58:41;;;;;;;42.08;9.30;;;;;;;;;;4928839;29;20095;-60
2021/05/20 14:01:10;;;;;;;93.78;14.48;;;;;;;;;;4925392;29;20106;-60
2021/05/20 14:03:37;;;;;;;12.57;4.05;;;;;;;;;;4929104;29;20047;-60
2021/05/20 14:06:03;;;;;;;50.67;8.93;;;;;;;;;;4911591;29;20052;-61
2021/05/20 14:08:30;;;;;;;31.80;6.70;;;;;;;;;;4908472;29;20100;-65
2021/05/20 14:11:02;;;;;;;31.63;6.70;;;;;;;;;;4924730;29;20062;-62
2021/05/20 14:13:29;;;;;;;7.97;3.10;;;;;;;;;;4910390;29;20056;-65
2021/05/20 14:15:55;;;;;;;5.18;2.60;;;;;;;;;;4923932;29;20036;-66
2021/05/20 14:18:22;;;;;;;5.03;2.70;;;;;;;;;;4926649;29;20059;-66
2021/05/20 14:20:48;;;;;;;5.10;2.70;;;;;;;;;;4905499;29;20055;-66
2021/05/20 14:23:14;;;;;;;6.35;2.38;;;;;;;;;;4910101;29;20047;-61
2021/05/20 14:25:44;;;;;;;5.18;2.38;;;;;;;;;;4906706;29;20092;-64
2021/05/20 14:28:13;;;;;;;6.97;2.92;;;;;;;;;;4928719;29;20050;-64
2021/05/20 14:30:39;;;;;;;5.57;2.33;;;;;;;;;;4923324;29;20138;-64
2021/05/20 14:33:08;;;;;;;7.88;3.15;;;;;;;;;;4908119;29;20091;-64
2021/05/20 14:35:35;;;;;;;6.32;2.80;;;;;;;;;;4908497;29;20054;-62
2021/05/20 14:38:01;;;;;;;8.00;3.00;;;;;;;;;;4905867;29;20048;-63